Time;durP1;ratioP1;P1;durP2;ratioP2;P2;SDS_P1;SDS_P2;PMS_P1;PMS_P2;Temp;Humidity;BMP_temperature;BMP_pressure;BME280_temperature;BME280_humidity;BME280_pressure;Samples;Min_cycle;Max_cycle;Signal;HPM_P1;HPM_P2
2023/08/02 00:01:47;;;;;;;2.40;1.98;;;19.90;49.20;;;;;;20527;6833;277540;-69
2023/08/02 00:04:08;;;;;;;1.80;1.70;;;20.00;49.30;;;;;;20716;6839;117541;-69
2023/08/02 00:06:34;;;;;;;2.35;1.90;;;19.90;49.30;;;;;;20490;6839;296838;-69
2023/08/02 00:09:00;;;;;;;2.12;1.62;;;20.00;49.30;;;;;;20733;6839;117704;-68
2023/08/02 00:11:25;;;;;;;1.87;1.77;;;19.90;49.30;;;;;;20732;6839;117166;-70
2023/08/02 00:13:51;;;;;;;2.83;1.50;;;19.70;49.70;;;;;;20703;6845;117115;-69
2023/08/02 00:16:16;;;;;;;1.50;1.40;;;19.50;50.00;;;;;;20748;6834;117464;-69
2023/08/02 00:18:42;;;;;;;2.28;2.08;;;19.30;50.30;;;;;;20524;6834;277608;-70
2023/08/02 00:21:08;;;;;;;2.60;2.40;;;19.50;50.50;;;;;;20541;6834;283140;-69
2023/08/02 00:23:33;;;;;;;2.30;2.07;;;19.80;50.00;;;;;;20510;6839;278071;-69
2023/08/02 00:25:59;;;;;;;3.13;1.90;;;20.10;49.40;;;;;;20520;6839;308145;-68
2023/08/02 00:28:24;;;;;;;2.92;2.15;;;20.30;49.20;;;;;;20491;6834;308530;-70
2023/08/02 00:30:50;;;;;;;2.83;1.90;;;20.40;48.80;;;;;;20698;6834;117225;-70
2023/08/02 00:33:16;;;;;;;2.00;1.90;;;20.20;49.00;;;;;;20497;6834;277573;-69
2023/08/02 00:35:41;;;;;;;2.12;1.92;;;20.10;49.30;;;;;;20496;6834;310262;-69
2023/08/02 00:38:07;;;;;;;2.30;1.90;;;20.20;49.10;;;;;;20704;6839;121295;-69
2023/08/02 00:40:32;;;;;;;3.00;1.70;;;20.00;49.20;;;;;;20640;6854;117318;-69
2023/08/02 00:42:58;;;;;;;1.90;1.80;;;19.60;49.70;;;;;;20714;6839;117361;-69
2023/08/02 00:45:23;;;;;;;2.40;2.20;;;19.30;50.10;;;;;;20494;6839;311658;-68
2023/08/02 00:47:50;;;;;;;2.85;2.08;;;19.70;50.30;;;;;;20506;6839;279095;-68
2023/08/02 00:50:15;;;;;;;2.75;1.98;;;19.60;50.20;;;;;;20517;6839;328488;-69
2023/08/02 00:52:41;;;;;;;2.12;2.00;;;19.90;49.90;;;;;;20503;6839;311443;-70
2023/08/02 00:55:07;;;;;;;2.13;1.70;;;20.00;49.50;;;;;;20727;6839;117123;-69
2023/08/02 00:57:32;;;;;;;3.35;2.00;;;19.80;49.70;;;;;;20468;6854;337383;-69
2023/08/02 00:59:58;;;;;;;1.83;1.73;;;19.80;49.90;;;;;;20716;6839;117119;-69
2023/08/02 01:02:23;;;;;;;3.10;2.10;;;19.60;50.00;;;;;;20497;6839;308927;-69
2023/08/02 01:04:49;;;;;;;2.67;2.10;;;19.60;50.40;;;;;;20517;6839;284313;-69
2023/08/02 01:07:15;;;;;;;2.80;2.00;;;19.80;50.10;;;;;;20521;6839;308588;-69
2023/08/02 01:09:40;;;;;;;2.20;2.10;;;19.90;49.70;;;;;;20501;6839;280041;-69
2023/08/02 01:12:07;;;;;;;2.17;1.97;;;20.10;49.30;;;;;;20514;6837;287391;-68
2023/08/02 01:14:32;;;;;;;2.53;2.03;;;20.10;49.30;;;;;;20503;6834;315647;-69
2023/08/02 01:16:58;;;;;;;1.97;1.80;;;19.80;50.10;;;;;;20732;6839;117138;-69
2023/08/02 01:19:24;;;;;;;2.40;2.20;;;19.80;49.40;;;;;;20539;6834;336211;-70
2023/08/02 01:21:50;;;;;;;2.33;2.12;;;19.70;49.60;;;;;;20737;6839;118012;-69
2023/08/02 01:24:15;;;;;;;2.87;1.83;;;19.50;49.80;;;;;;20694;6854;119450;-70
2023/08/02 01:26:41;;;;;;;3.80;1.80;;;19.20;50.30;;;;;;20712;6839;123500;-70
2023/08/02 01:29:06;;;;;;;3.03;1.50;;;18.90;50.70;;;;;;20704;6839;117135;-69
2023/08/02 01:31:32;;;;;;;1.87;1.60;;;18.70;51.10;;;;;;20674;6854;117763;-68
2023/08/02 01:33:57;;;;;;;2.20;1.53;;;18.60;51.40;;;;;;20718;6839;123001;-69
2023/08/02 01:36:24;;;;;;;2.70;1.90;;;18.40;51.80;;;;;;20711;6839;117601;-69
2023/08/02 01:38:49;;;;;;;3.07;1.60;;;18.30;51.70;;;;;;20728;6839;117166;-69
2023/08/02 01:41:15;;;;;;;2.20;2.00;;;18.30;52.00;;;;;;20525;6834;277956;-68
2023/08/02 01:43:40;;;;;;;2.87;1.83;;;18.60;52.20;;;;;;20730;6839;117189;-67
2023/08/02 01:46:06;;;;;;;2.10;1.90;;;18.70;51.80;;;;;;20727;6839;117063;-69
2023/08/02 01:48:31;;;;;;;3.92;2.30;;;18.50;51.80;;;;;;20508;6837;310807;-69
2023/08/02 01:50:57;;;;;;;4.40;2.40;;;18.80;51.80;;;;;;20513;6839;277728;-67
2023/08/02 01:53:23;;;;;;;1.67;1.53;;;19.10;51.20;;;;;;20726;6839;121073;-67
2023/08/02 01:55:48;;;;;;;3.13;1.43;;;19.10;51.00;;;;;;20744;6835;117025;-68
2023/08/02 01:58:14;;;;;;;2.43;2.00;;;18.80;51.20;;;;;;20523;6839;278675;-70
2023/08/02 02:00:39;;;;;;;2.30;2.17;;;19.00;51.30;;;;;;20480;6839;353859;-69
2023/08/02 02:03:05;;;;;;;2.20;2.00;;;19.20;51.00;;;;;;20516;6839;278513;-68
2023/08/02 02:05:30;;;;;;;2.20;2.00;;;19.50;50.40;;;;;;20685;6854;118978;-70
2023/08/02 02:07:56;;;;;;;2.92;2.22;;;19.30;50.30;;;;;;20526;6839;308040;-69
2023/08/02 02:10:22;;;;;;;2.35;2.17;;;19.60;50.10;;;;;;20504;6839;339101;-69
2023/08/02 02:12:49;;;;;;;2.08;1.95;;;19.80;49.60;;;;;;20520;6839;336626;-69
2023/08/02 02:15:15;;;;;;;1.90;1.80;;;19.80;49.50;;;;;;20740;6835;122504;-69
2023/08/02 02:17:42;;;;;;;2.60;2.20;;;19.60;49.60;;;;;;20520;6839;278470;-70
2023/08/02 02:20:08;;;;;;;2.50;2.30;;;19.90;49.40;;;;;;20523;6835;308243;-70
2023/08/02 02:22:33;;;;;;;2.05;1.92;;;19.80;49.20;;;;;;20518;6839;277720;-69
2023/08/02 02:24:59;;;;;;;2.33;1.90;;;20.10;49.10;;;;;;20724;6853;117331;-68
2023/08/02 02:27:26;;;;;;;2.30;2.10;;;19.80;49.20;;;;;;20540;6839;280388;-70
2023/08/02 02:29:51;;;;;;;2.93;2.10;;;19.80;49.20;;;;;;20753;6839;67762;-68
2023/08/02 02:32:17;;;;;;;2.53;2.20;;;19.60;49.40;;;;;;20488;6854;279368;-69
2023/08/02 02:34:42;;;;;;;4.55;2.17;;;19.60;49.90;;;;;;20508;6839;277715;-68
2023/08/02 02:37:08;;;;;;;2.85;2.17;;;19.80;50.10;;;;;;20533;6839;318668;-69
2023/08/02 02:39:33;;;;;;;1.95;1.70;;;19.90;50.00;;;;;;20743;6834;117483;-69
2023/08/02 02:41:59;;;;;;;2.60;2.10;;;19.60;50.10;;;;;;20511;6839;308046;-69
2023/08/02 02:44:25;;;;;;;3.70;2.28;;;19.70;51.00;;;;;;20494;6839;326957;-69
2023/08/02 02:46:51;;;;;;;2.20;2.00;;;19.60;50.20;;;;;;20457;6839;337239;-67
2023/08/02 02:49:16;;;;;;;3.00;2.15;;;19.70;49.90;;;;;;20691;6854;117688;-69
2023/08/02 02:51:42;;;;;;;1.92;1.80;;;19.50;50.70;;;;;;20728;6839;117106;-69
2023/08/02 02:54:08;;;;;;;1.80;1.70;;;19.10;50.50;;;;;;20740;6839;118223;-69
2023/08/02 02:56:34;;;;;;;2.10;2.00;;;18.50;51.50;;;;;;20717;6839;117645;-68
2023/08/02 02:59:00;;;;;;;2.62;2.12;;;18.40;51.40;;;;;;20524;6839;307271;-68
2023/08/02 03:01:25;;;;;;;2.55;2.05;;;18.70;51.40;;;;;;20534;6834;308341;-69
2023/08/02 03:03:51;;;;;;;2.35;1.80;;;19.10;51.40;;;;;;20703;6835;117494;-69
2023/08/02 03:06:18;;;;;;;2.20;1.70;;;19.10;51.10;;;;;;20719;6839;118823;-67
2023/08/02 03:08:43;;;;;;;2.35;2.15;;;18.90;51.30;;;;;;20495;6839;280650;-70
2023/08/02 03:11:09;;;;;;;2.13;1.93;;;19.10;51.40;;;;;;20490;6845;307345;-69
2023/08/02 03:13:35;;;;;;;2.45;1.80;;;19.40;51.20;;;;;;20532;6835;277881;-69
2023/08/02 03:16:00;;;;;;;2.37;2.17;;;19.70;50.00;;;;;;20502;6835;278872;-68
2023/08/02 03:18:26;;;;;;;2.30;2.10;;;19.90;49.60;;;;;;20479;6839;301349;-70
2023/08/02 03:20:51;;;;;;;2.55;2.20;;;20.10;48.90;;;;;;20462;6854;337237;-70
2023/08/02 03:23:17;;;;;;;2.07;1.97;;;20.20;48.50;;;;;;20708;6839;117600;-70
2023/08/02 03:25:42;;;;;;;2.40;2.20;;;20.00;48.80;;;;;;20513;6839;278924;-69
2023/08/02 03:28:09;;;;;;;2.30;2.10;;;20.20;48.30;;;;;;20494;6839;310164;-69
2023/08/02 03:30:34;;;;;;;2.13;2.03;;;20.10;48.20;;;;;;20682;6839;118269;-70
2023/08/02 03:33:00;;;;;;;2.47;2.10;;;20.00;48.40;;;;;;20450;6854;316054;-70
2023/08/02 03:35:25;;;;;;;2.42;2.08;;;20.00;48.40;;;;;;20492;6838;280893;-69
2023/08/02 03:37:51;;;;;;;2.43;2.10;;;20.20;48.90;;;;;;20472;6839;337875;-68
2023/08/02 03:40:17;;;;;;;2.35;2.15;;;20.30;48.20;;;;;;20608;6854;117256;-69
2023/08/02 03:42:43;;;;;;;2.07;1.87;;;19.80;49.00;;;;;;20671;6839;117369;-70
2023/08/02 03:45:09;;;;;;;2.67;1.83;;;19.80;49.00;;;;;;20706;6834;116978;-70
2023/08/02 03:47:34;;;;;;;2.75;2.10;;;19.60;49.50;;;;;;20469;6839;308032;-69
2023/08/02 03:50:01;;;;;;;3.62;2.15;;;20.00;49.70;;;;;;20431;6854;313079;-70
2023/08/02 03:52:26;;;;;;;2.20;2.10;;;19.90;49.50;;;;;;20661;6854;118779;-70
2023/08/02 03:54:54;;;;;;;2.30;2.10;;;19.90;49.60;;;;;;20517;6839;307689;-71
2023/08/02 03:57:19;;;;;;;2.40;2.20;;;19.90;49.00;;;;;;20741;6834;116086;-70
2023/08/02 03:59:45;;;;;;;3.17;2.10;;;19.80;49.10;;;;;;20722;6839;117191;-71
2023/08/02 04:02:10;;;;;;;2.47;2.20;;;19.60;49.50;;;;;;20535;6834;278048;-70
2023/08/02 04:04:36;;;;;;;2.53;2.00;;;19.70;49.70;;;;;;20708;6839;117321;-69
2023/08/02 04:07:02;;;;;;;2.20;2.10;;;19.80;49.80;;;;;;20520;6839;278523;-69
2023/08/02 04:09:28;;;;;;;2.10;2.00;;;19.80;49.80;;;;;;20723;6839;119091;-70
2023/08/02 04:11:53;;;;;;;2.23;2.07;;;19.80;49.80;;;;;;20724;6839;118138;-70
2023/08/02 04:14:19;;;;;;;2.97;2.00;;;19.50;49.90;;;;;;20732;6837;117531;-70
2023/08/02 04:16:44;;;;;;;2.53;2.33;;;19.40;50.20;;;;;;20498;6839;278309;-70
2023/08/02 04:19:10;;;;;;;1.80;1.70;;;19.50;50.70;;;;;;20684;6839;117564;-69
2023/08/02 04:21:35;;;;;;;3.17;2.30;;;19.50;50.50;;;;;;20713;6839;117072;-71
2023/08/02 04:24:01;;;;;;;2.30;2.10;;;19.40;50.80;;;;;;20516;6839;309466;-71
2023/08/02 04:26:27;;;;;;;4.87;1.97;;;19.50;52.00;;;;;;20724;6835;117583;-72
2023/08/02 04:28:53;;;;;;;2.00;1.90;;;19.30;51.80;;;;;;20734;6839;117696;-70
2023/08/02 04:31:19;;;;;;;2.80;2.33;;;19.30;51.80;;;;;;20735;6835;117435;-70
2023/08/02 04:33:44;;;;;;;3.73;2.60;;;19.10;52.10;;;;;;20392;6839;311584;-69
2023/08/02 04:36:10;;;;;;;1.92;1.83;;;19.30;53.90;;;;;;20724;6835;119255;-69
2023/08/02 04:38:35;;;;;;;3.47;2.40;;;19.30;53.50;;;;;;20520;6835;282701;-70
2023/08/02 04:41:02;;;;;;;2.92;2.62;;;19.70;53.80;;;;;;20516;6839;342228;-70
2023/08/02 04:43:27;;;;;;;2.50;2.30;;;19.70;53.80;;;;;;20744;6835;117471;-70
2023/08/02 04:45:53;;;;;;;2.83;2.63;;;19.60;53.40;;;;;;20731;6839;117176;-69
2023/08/02 04:48:18;;;;;;;2.50;2.30;;;19.40;53.70;;;;;;20723;6838;117548;-69
2023/08/02 04:50:44;;;;;;;3.13;2.40;;;19.10;54.00;;;;;;20518;6834;306632;-71
2023/08/02 04:53:10;;;;;;;2.72;2.53;;;19.20;55.30;;;;;;20521;6839;311285;-69
2023/08/02 04:55:45;;;;;;;2.80;2.60;;;19.50;55.10;;;;;;20512;6839;290610;-70
2023/08/02 04:58:10;;;;;;;2.93;2.47;;;19.80;54.80;;;;;;20741;6834;117139;-70
2023/08/02 05:00:36;;;;;;;2.70;2.30;;;19.50;54.50;;;;;;20705;6839;117913;-70
2023/08/02 05:03:03;;;;;;;2.90;2.70;;;19.20;54.80;;;;;;20722;6839;121779;-70
2023/08/02 05:05:28;;;;;;;4.30;3.00;;;18.90;55.20;;;;;;20515;6839;314485;-71
2023/08/02 05:07:54;;;;;;;3.20;2.90;;;19.00;56.90;;;;;;20502;6839;307135;-71
2023/08/02 05:10:19;;;;;;;4.47;3.13;;;19.30;56.50;;;;;;20686;6854;117289;-69
2023/08/02 05:12:45;;;;;;;2.92;2.70;;;19.20;56.10;;;;;;20716;6839;117188;-72
2023/08/02 05:15:11;;;;;;;3.40;3.20;;;18.90;56.30;;;;;;20728;6839;117252;-71
2023/08/02 05:17:36;;;;;;;4.03;3.62;;;18.70;56.70;;;;;;20537;6834;277744;-71
2023/08/02 05:20:02;;;;;;;4.00;3.70;;;18.80;57.50;;;;;;20531;6839;279004;-70
2023/08/02 05:22:27;;;;;;;4.10;3.80;;;19.10;57.50;;;;;;20521;6839;279766;-71
2023/08/02 05:24:54;;;;;;;4.50;4.10;;;19.30;57.40;;;;;;20567;6839;278342;-69
2023/08/02 05:27:20;;;;;;;3.97;3.57;;;19.50;57.20;;;;;;20716;6854;117993;-70
2023/08/02 05:29:47;;;;;;;4.35;3.92;;;19.20;56.90;;;;;;20511;6839;339134;-71
2023/08/02 05:32:12;;;;;;;3.40;3.20;;;19.20;57.50;;;;;;20725;6839;117424;-71
2023/08/02 05:34:38;;;;;;;4.63;3.60;;;19.00;57.60;;;;;;20721;6839;118004;-71
2023/08/02 05:37:04;;;;;;;4.53;4.13;;;18.70;58.10;;;;;;20542;6835;311313;-70
2023/08/02 05:39:29;;;;;;;4.57;4.27;;;18.70;59.30;;;;;;20523;6839;307967;-71
2023/08/02 05:41:55;;;;;;;4.60;4.20;;;18.90;59.10;;;;;;20477;6854;310339;-70
2023/08/02 05:44:21;;;;;;;3.75;3.35;;;18.90;58.70;;;;;;20713;6839;117741;-71
2023/08/02 05:46:47;;;;;;;4.13;3.73;;;18.90;58.70;;;;;;20725;6839;117250;-71
2023/08/02 05:49:12;;;;;;;4.62;4.32;;;18.60;59.20;;;;;;20471;6854;308509;-72
2023/08/02 05:51:40;;;;;;;4.37;4.00;;;18.50;59.80;;;;;;20733;6839;117167;-71
2023/08/02 05:54:06;;;;;;;5.07;4.67;;;18.70;60.90;;;;;;20515;6839;307981;-71
2023/08/02 05:56:32;;;;;;;5.60;4.73;;;18.60;60.80;;;;;;20718;6839;118374;-70
2023/08/02 05:58:58;;;;;;;5.43;4.93;;;18.70;61.50;;;;;;20526;6838;315777;-71
2023/08/02 06:01:24;;;;;;;5.97;4.47;;;18.70;61.50;;;;;;20740;6839;117407;-72
2023/08/02 06:03:49;;;;;;;6.25;4.82;;;18.60;61.20;;;;;;20752;6834;116396;-72
2023/08/02 06:06:15;;;;;;;5.53;4.53;;;18.40;61.50;;;;;;20730;6839;123187;-71
2023/08/02 06:08:41;;;;;;;6.20;5.70;;;18.20;61.90;;;;;;20513;6834;307782;-70
2023/08/02 06:11:07;;;;;;;6.87;6.07;;;18.70;62.50;;;;;;20518;6839;337812;-71
2023/08/02 06:13:32;;;;;;;6.15;5.75;;;18.70;62.20;;;;;;20529;6834;341082;-71
2023/08/02 06:15:58;;;;;;;7.18;6.47;;;19.00;62.00;;;;;;20535;6834;331274;-71
2023/08/02 06:18:23;;;;;;;7.20;6.50;;;19.30;61.40;;;;;;20505;6839;312124;-71
2023/08/02 06:20:49;;;;;;;5.50;5.10;;;19.50;61.00;;;;;;20728;6839;117684;-71
2023/08/02 06:23:14;;;;;;;7.20;6.70;;;19.40;61.10;;;;;;20516;6839;311639;-71
2023/08/02 06:25:40;;;;;;;7.80;6.93;;;19.40;61.00;;;;;;20534;6834;279398;-71
2023/08/02 06:28:06;;;;;;;7.45;6.90;;;19.60;60.80;;;;;;20473;6854;282254;-71
2023/08/02 06:30:34;;;;;;;6.60;6.10;;;19.80;60.00;;;;;;20705;6839;121009;-70
2023/08/02 06:33:00;;;;;;;7.27;6.67;;;19.60;60.20;;;;;;20388;6854;315292;-72
2023/08/02 06:35:25;;;;;;;8.10;7.50;;;19.70;61.30;;;;;;20496;6839;308044;-71
2023/08/02 06:37:52;;;;;;;7.07;6.43;;;19.90;61.70;;;;;;20660;6839;117172;-70
2023/08/02 06:40:17;;;;;;;6.80;6.20;;;19.90;61.80;;;;;;20678;6839;117100;-70
2023/08/02 06:42:43;;;;;;;7.50;6.90;;;19.80;62.10;;;;;;20460;6839;318220;-71
2023/08/02 06:45:10;;;;;;;7.13;6.70;;;19.90;62.00;;;;;;20478;6839;282765;-71
2023/08/02 06:47:36;;;;;;;7.12;6.62;;;20.50;60.00;;;;;;20478;6839;337413;-71
2023/08/02 06:50:02;;;;;;;6.57;5.97;;;20.50;59.90;;;;;;20695;6839;117892;-69
2023/08/02 06:52:32;;;;;;;7.53;7.00;;;20.40;60.60;;;;;;20439;6854;280944;-71
2023/08/02 06:54:57;;;;;;;7.20;6.70;;;20.40;60.60;;;;;;20519;6839;303310;-71
2023/08/02 06:57:24;;;;;;;6.77;6.37;;;20.70;60.40;;;;;;20732;6839;123392;-71
2023/08/02 06:59:49;;;;;;;6.03;5.53;;;20.30;60.60;;;;;;20722;6839;117528;-71
2023/08/02 07:02:15;;;;;;;6.23;5.63;;;20.30;60.60;;;;;;20739;6835;117085;-71
2023/08/02 07:04:41;;;;;;;6.47;5.70;;;19.70;61.40;;;;;;20728;6835;117206;-70
2023/08/02 07:07:06;;;;;;;7.60;6.90;;;19.80;61.50;;;;;;20745;6835;117037;-71
2023/08/02 07:09:32;;;;;;;7.23;6.53;;;19.60;61.90;;;;;;20751;6835;116952;-71
2023/08/02 07:11:58;;;;;;;7.37;6.80;;;19.50;62.50;;;;;;20537;6833;308904;-70
2023/08/02 07:14:24;;;;;;;8.23;7.60;;;20.10;62.60;;;;;;20508;6834;308270;-70
2023/08/02 07:16:49;;;;;;;7.75;7.18;;;20.10;62.60;;;;;;20473;6854;341821;-71
2023/08/02 07:19:16;;;;;;;6.77;6.20;;;20.40;62.50;;;;;;20723;6839;116994;-71
2023/08/02 07:21:42;;;;;;;7.33;6.73;;;20.50;62.50;;;;;;20728;6839;117034;-71
2023/08/02 07:24:08;;;;;;;8.07;7.45;;;20.40;63.10;;;;;;20518;6839;307966;-70
2023/08/02 07:26:33;;;;;;;8.57;7.10;;;20.60;63.30;;;;;;20708;6839;117561;-71
2023/08/02 07:29:00;;;;;;;7.90;7.22;;;20.60;62.90;;;;;;20526;6839;283122;-70
2023/08/02 07:31:26;;;;;;;8.67;8.07;;;21.00;61.60;;;;;;20527;6839;279257;-70
2023/08/02 07:33:52;;;;;;;7.10;6.50;;;21.00;61.60;;;;;;20746;6834;117035;-70
2023/08/02 07:36:19;;;;;;;7.33;6.30;;;20.60;61.90;;;;;;20750;6834;120147;-70
2023/08/02 07:38:45;;;;;;;6.27;5.73;;;20.40;63.00;;;;;;20657;6854;117394;-71
2023/08/02 07:41:11;;;;;;;6.50;6.00;;;20.40;62.40;;;;;;20510;6839;307249;-70
2023/08/02 07:43:37;;;;;;;5.60;5.20;;;20.40;62.10;;;;;;20725;6839;117139;-71
2023/08/02 07:46:03;;;;;;;5.50;5.10;;;20.40;62.10;;;;;;20679;6854;117725;-72
2023/08/02 07:48:28;;;;;;;4.87;4.47;;;20.20;62.50;;;;;;20708;6839;117202;-71
2023/08/02 07:50:54;;;;;;;4.90;4.53;;;20.00;63.10;;;;;;20749;6835;117230;-72
2023/08/02 07:53:19;;;;;;;6.40;5.37;;;19.90;63.90;;;;;;20513;6839;278882;-72
2023/08/02 07:55:45;;;;;;;5.00;4.60;;;20.20;65.40;;;;;;20734;6837;117045;-71
2023/08/02 07:58:12;;;;;;;5.70;5.12;;;20.30;65.10;;;;;;20525;6837;307402;-72
2023/08/02 08:00:37;;;;;;;5.50;5.18;;;20.50;65.20;;;;;;20503;6839;337904;-72
2023/08/02 08:03:03;;;;;;;5.60;5.20;;;20.80;64.50;;;;;;20523;6839;300795;-72
2023/08/02 08:05:32;;;;;;;5.60;5.20;;;21.10;63.70;;;;;;20512;6839;308478;-72
2023/08/02 08:07:58;;;;;;;5.50;5.00;;;21.50;62.70;;;;;;20509;6839;307839;-73
2023/08/02 08:10:24;;;;;;;5.20;4.70;;;21.50;62.50;;;;;;20498;6839;278386;-72
2023/08/02 08:12:49;;;;;;;5.00;4.60;;;21.60;61.80;;;;;;20465;6854;308198;-73
2023/08/02 08:15:15;;;;;;;4.10;3.80;;;21.70;61.40;;;;;;20735;6839;117661;-73
2023/08/02 08:17:41;;;;;;;3.72;3.42;;;21.10;62.80;;;;;;20735;6839;118739;-73
2023/08/02 08:20:07;;;;;;;4.07;3.70;;;21.10;62.40;;;;;;20726;6839;118471;-74
2023/08/02 08:22:32;;;;;;;4.80;3.93;;;20.80;63.00;;;;;;20666;6853;116655;-72
2023/08/02 08:24:58;;;;;;;6.72;4.00;;;20.60;63.70;;;;;;20537;6839;281668;-72
2023/08/02 08:27:24;;;;;;;4.78;4.37;;;21.00;63.40;;;;;;20555;6839;340320;-73
2023/08/02 08:29:50;;;;;;;5.40;4.50;;;21.00;63.40;;;;;;20537;6839;277557;-73
2023/08/02 08:32:16;;;;;;;5.07;4.57;;;21.20;63.00;;;;;;20535;6834;277087;-72
2023/08/02 08:34:42;;;;;;;4.33;3.73;;;21.40;62.80;;;;;;20711;6839;119847;-73
2023/08/02 08:37:07;;;;;;;5.83;4.00;;;21.30;63.00;;;;;;20725;6839;117144;-72
2023/08/02 08:39:32;;;;;;;4.23;3.93;;;21.00;63.80;;;;;;20539;6834;280051;-72
2023/08/02 08:41:58;;;;;;;5.37;4.97;;;21.10;64.10;;;;;;20534;6834;278004;-72
2023/08/02 08:44:23;;;;;;;4.77;4.37;;;21.40;63.90;;;;;;20712;6839;121974;-73
2023/08/02 08:46:49;;;;;;;3.93;3.70;;;21.30;63.90;;;;;;20508;6839;308375;-73
2023/08/02 08:49:14;;;;;;;3.50;3.20;;;21.30;63.20;;;;;;20733;6839;117120;-73
2023/08/02 08:51:40;;;;;;;3.60;3.33;;;21.20;63.30;;;;;;20515;6839;277747;-73
2023/08/02 08:54:06;;;;;;;3.67;3.47;;;21.20;63.10;;;;;;20518;6839;278728;-72
2023/08/02 08:56:31;;;;;;;4.67;3.43;;;21.40;63.20;;;;;;20440;6854;279877;-73
2023/08/02 08:58:59;;;;;;;3.85;3.58;;;21.60;62.50;;;;;;20508;6839;336171;-73
2023/08/02 09:01:22;;;;;;;5.90;3.30;;;21.70;62.40;;;;;;20726;6839;119346;-72
2023/08/02 09:03:48;;;;;;;3.78;3.20;;;21.60;62.90;;;;;;20539;6835;280644;-72
2023/08/02 09:06:15;;;;;;;3.40;3.07;;;21.60;62.90;;;;;;20742;6839;118275;-71
2023/08/02 09:08:39;;;;;;;3.37;3.00;;;21.50;63.40;;;;;;20564;6835;306310;-71
2023/08/02 09:11:04;;;;;;;3.30;3.10;;;21.60;63.60;;;;;;20505;6839;335584;-70
2023/08/02 09:13:30;;;;;;;3.50;3.30;;;21.80;62.90;;;;;;20615;6835;305160;-71
2023/08/02 09:16:06;;;;;;;2.70;2.60;;;22.00;62.80;;;;;;20819;6835;116238;-71
2023/08/02 09:18:41;;;;;;;3.00;2.80;;;21.90;63.10;;;;;;20581;6835;308249;-70
2023/08/02 09:21:07;;;;;;;3.17;2.97;;;22.00;62.30;;;;;;20598;6835;277055;-70
2023/08/02 09:23:32;;;;;;;3.17;2.97;;;22.20;61.60;;;;;;20572;6839;277742;-72
2023/08/02 09:26:18;;;;;;;3.20;3.00;;;22.40;61.50;;;;;;20521;6854;340311;-72
2023/08/02 09:29:01;;;;;;;2.90;2.70;;;22.60;61.60;;;;;;20716;6839;117810;-71
2023/08/02 09:31:29;;;;;;;3.50;3.30;;;22.60;61.30;;;;;;20468;6854;342552;-71
2023/08/02 09:33:56;;;;;;;2.90;2.70;;;22.60;61.90;;;;;;20724;6838;117077;-70
2023/08/02 09:36:27;;;;;;;3.30;3.10;;;22.60;61.90;;;;;;20668;6854;117730;-70
2023/08/02 09:38:53;;;;;;;3.70;3.50;;;22.60;63.40;;;;;;20509;6839;284798;-70
2023/08/02 09:41:22;;;;;;;3.03;2.83;;;22.60;63.40;;;;;;20732;6839;119835;-71
2023/08/02 09:43:48;;;;;;;5.13;3.83;;;22.60;63.20;;;;;;20531;6834;307649;-67
2023/08/02 09:46:26;;;;;;;3.37;3.07;;;22.70;62.80;;;;;;20729;6839;117091;-74
2023/08/02 09:48:52;;;;;;;3.80;3.50;;;22.50;63.60;;;;;;20728;6839;118348;-71
2023/08/02 09:51:18;;;;;;;3.80;3.50;;;22.50;63.60;;;;;;20466;6854;342440;-73
2023/08/02 09:53:54;;;;;;;4.60;3.60;;;22.60;63.20;;;;;;20728;6839;117197;-72
2023/08/02 09:56:19;;;;;;;3.57;3.30;;;22.60;63.20;;;;;;20726;6839;118291;-71
2023/08/02 09:58:46;;;;;;;4.18;3.87;;;22.40;63.80;;;;;;20496;6834;322714;-73
2023/08/02 10:01:11;;;;;;;4.90;3.50;;;22.50;63.90;;;;;;20720;6834;117016;-70
2023/08/02 10:03:38;;;;;;;4.05;3.78;;;22.50;64.00;;;;;;20494;6839;308461;-73
2023/08/02 10:06:03;;;;;;;4.57;3.93;;;22.70;63.90;;;;;;20494;6834;295520;-71
2023/08/02 10:08:28;;;;;;;4.35;4.00;;;23.00;63.00;;;;;;20463;6834;279403;-69
2023/08/02 10:10:54;;;;;;;4.10;3.70;;;23.20;61.60;;;;;;20463;6834;309301;-71
2023/08/02 10:13:20;;;;;;;3.50;3.30;;;23.40;60.60;;;;;;20656;6839;117183;-71
2023/08/02 10:15:49;;;;;;;3.57;3.37;;;22.90;62.00;;;;;;20678;6835;117087;-70
2023/08/02 10:18:14;;;;;;;3.95;3.65;;;22.90;61.50;;;;;;20477;6839;336739;-72
2023/08/02 10:20:40;;;;;;;3.80;3.50;;;22.80;60.70;;;;;;20679;6835;117787;-71
2023/08/02 10:23:06;;;;;;;3.73;3.43;;;22.70;61.30;;;;;;20674;6835;118387;-69
2023/08/02 10:25:33;;;;;;;4.50;4.20;;;22.50;62.00;;;;;;20440;6839;314795;-70
2023/08/02 10:27:59;;;;;;;4.50;4.10;;;22.70;62.60;;;;;;20388;6854;279018;-75
2023/08/02 10:30:24;;;;;;;3.70;3.50;;;23.00;61.50;;;;;;20622;6839;130132;-72
2023/08/02 10:33:12;;;;;;;4.37;4.10;;;23.00;61.40;;;;;;20504;6839;301181;-71
2023/08/02 10:35:56;;;;;;;3.90;3.70;;;23.10;61.20;;;;;;20699;6839;117270;-72
2023/08/02 10:38:38;;;;;;;4.63;3.60;;;23.00;62.00;;;;;;20649;6854;121785;-73
2023/08/02 10:41:04;;;;;;;4.55;4.05;;;23.10;64.00;;;;;;20274;6839;284688;-71
2023/08/02 10:43:30;;;;;;;3.80;3.60;;;23.10;64.00;;;;;;20726;6835;117094;-71
2023/08/02 10:46:16;;;;;;;4.10;3.80;;;23.30;63.70;;;;;;20502;6838;329035;-71
2023/08/02 10:48:41;;;;;;;3.70;3.40;;;23.70;62.40;;;;;;20720;6834;117142;-70
2023/08/02 10:51:06;;;;;;;4.10;3.80;;;23.90;62.80;;;;;;20476;6854;337691;-71
2023/08/02 10:53:32;;;;;;;3.87;3.67;;;24.30;60.80;;;;;;20631;6839;117522;-71
2023/08/02 10:56:02;;;;;;;3.95;3.75;;;24.50;61.20;;;;;;20522;6839;302213;-71
2023/08/02 10:58:27;;;;;;;3.90;3.60;;;24.80;60.90;;;;;;20689;6834;116923;-70
2023/08/02 11:00:53;;;;;;;4.30;3.90;;;24.90;60.00;;;;;;20539;6834;311276;-72
2023/08/02 11:03:30;;;;;;;4.03;3.83;;;25.10;58.50;;;;;;20662;6839;117621;-72
2023/08/02 11:05:55;;;;;;;4.13;3.80;;;25.20;59.00;;;;;;20667;6854;117183;-71
2023/08/02 11:08:21;;;;;;;4.30;4.00;;;25.00;59.20;;;;;;20511;6839;340997;-70
2023/08/02 11:10:53;;;;;;;4.37;3.60;;;25.10;56.70;;;;;;20706;6839;118797;-70
2023/08/02 11:13:19;;;;;;;4.57;3.97;;;25.10;58.00;;;;;;20506;6839;312233;-70
2023/08/02 11:15:45;;;;;;;4.03;3.73;;;25.20;56.80;;;;;;20736;6834;117507;-69
2023/08/02 11:18:12;;;;;;;3.37;3.17;;;25.20;57.30;;;;;;20724;6839;117175;-70
2023/08/02 11:20:38;;;;;;;3.73;3.53;;;24.90;57.80;;;;;;20498;6839;306837;-70
2023/08/02 11:23:19;;;;;;;4.03;3.72;;;25.10;57.10;;;;;;20749;6835;117763;-71
2023/08/02 11:25:47;;;;;;;5.17;3.73;;;25.20;58.00;;;;;;20551;6839;307534;-69
2023/08/02 11:28:10;;;;;;;5.07;3.80;;;25.50;56.50;;;;;;20720;6854;119408;-71
2023/08/02 11:30:36;;;;;;;3.87;3.62;;;25.70;57.40;;;;;;20498;6839;282901;-71
2023/08/02 11:33:02;;;;;;;3.90;3.60;;;26.50;55.00;;;;;;20523;6837;281623;-71
2023/08/02 11:35:28;;;;;;;3.57;3.37;;;26.40;54.90;;;;;;20730;6839;121108;-72
2023/08/02 11:37:53;;;;;;;3.43;3.23;;;26.60;55.00;;;;;;20724;6839;117135;-71
2023/08/02 11:40:19;;;;;;;3.43;3.23;;;26.60;55.80;;;;;;20753;6835;117946;-71
2023/08/02 11:42:51;;;;;;;4.50;3.60;;;26.60;56.00;;;;;;20508;6839;282153;-73
2023/08/02 11:45:14;;;;;;;3.63;3.43;;;27.00;53.10;;;;;;20715;6835;117544;-71
2023/08/02 11:47:39;;;;;;;3.07;2.87;;;27.00;53.10;;;;;;20682;6839;118076;-69
2023/08/02 11:50:05;;;;;;;3.37;3.10;;;26.90;53.50;;;;;;20751;6835;117032;-71
2023/08/02 11:52:32;;;;;;;4.63;3.10;;;26.70;53.90;;;;;;20710;6839;118045;-71
2023/08/02 11:54:57;;;;;;;3.33;3.03;;;26.70;53.90;;;;;;20723;6839;117615;-71
2023/08/02 11:57:23;;;;;;;3.70;3.40;;;26.60;53.60;;;;;;20735;6833;117358;-71
2023/08/02 11:59:48;;;;;;;3.55;3.35;;;26.60;54.50;;;;;;20523;6839;278103;-71
2023/08/02 12:02:27;;;;;;;3.60;3.30;;;26.80;52.20;;;;;;20532;6834;278082;-72
2023/08/02 12:04:53;;;;;;;3.50;3.20;;;27.20;50.70;;;;;;20727;6839;117100;-71
2023/08/02 12:07:28;;;;;;;3.53;3.22;;;27.20;52.10;;;;;;20688;6854;117232;-71
2023/08/02 12:09:55;;;;;;;3.60;3.40;;;27.00;51.00;;;;;;20484;6839;311932;-70
2023/08/02 12:12:21;;;;;;;3.33;3.03;;;27.30;50.30;;;;;;20517;6839;282997;-73
2023/08/02 12:14:47;;;;;;;3.17;2.97;;;27.30;50.20;;;;;;20406;6834;307292;-69
2023/08/02 12:17:19;;;;;;;3.10;2.73;;;27.70;49.60;;;;;;20681;6854;118082;-70
2023/08/02 12:19:44;;;;;;;3.77;2.67;;;27.60;50.50;;;;;;20731;6839;117099;-72
2023/08/02 12:22:10;;;;;;;3.12;2.80;;;27.40;51.60;;;;;;20535;6834;307466;-72
2023/08/02 12:24:36;;;;;;;2.87;2.67;;;27.50;50.70;;;;;;20516;6834;315239;-72
2023/08/02 12:27:14;;;;;;;2.62;2.42;;;27.80;49.20;;;;;;20536;6834;294860;-70
2023/08/02 12:29:40;;;;;;;2.77;2.37;;;28.10;49.10;;;;;;20709;6839;117590;-71
2023/08/02 12:32:05;;;;;;;2.90;2.70;;;28.20;50.00;;;;;;20755;6834;117547;-72